sensor_id;sensor_type;location;lat;lon;timestamp;pressure;altitude;pressure_sealevel;temperature;humidity
33161;BME280;19522;45.656;11.302;2022-11-15T00:00:40;98647.91;;;8.14;93.92
33161;BME280;19522;45.656;11.302;2022-11-15T00:03:06;98643.69;;;8.11;94.58
33161;BME280;19522;45.656;11.302;2022-11-15T00:05:34;98647.06;;;8.05;94.03
33161;BME280;19522;45.656;11.302;2022-11-15T00:08:03;98646.38;;;8.19;93.68
33161;BME280;19522;45.656;11.302;2022-11-15T00:10:29;98643.84;;;8.34;91.52
33161;BME280;19522;45.656;11.302;2022-11-15T00:12:54;98574.56;;;8.00;92.10
33161;BME280;19522;45.656;11.302;2022-11-15T00:15:20;98630.84;;;8.13;93.40
33161;BME280;19522;45.656;11.302;2022-11-15T00:17:48;98605.63;;;7.79;94.98
33161;BME280;19522;45.656;11.302;2022-11-15T00:20:14;98592.91;;;7.63;95.77
33161;BME280;19522;45.656;11.302;2022-11-15T00:22:40;98636.75;;;7.84;96.64
33161;BME280;19522;45.656;11.302;2022-11-15T00:25:06;98623.53;;;7.72;96.48
33161;BME280;19522;45.656;11.302;2022-11-15T00:27:34;98607.25;;;7.56;96.36
33161;BME280;19522;45.656;11.302;2022-11-15T00:30:00;98610.16;;;7.62;95.92
33161;BME280;19522;45.656;11.302;2022-11-15T00:32:26;98607.13;;;7.66;95.54
33161;BME280;19522;45.656;11.302;2022-11-15T00:34:51;98627.44;;;7.86;94.88
33161;BME280;19522;45.656;11.302;2022-11-15T00:37:17;98582.97;;;7.80;92.59
33161;BME280;19522;45.656;11.302;2022-11-15T00:39:42;98623.22;;;8.00;92.17
33161;BME280;19522;45.656;11.302;2022-11-15T00:42:08;98622.38;;;7.91;92.57
33161;BME280;19522;45.656;11.302;2022-11-15T00:44:33;98631.84;;;7.87;93.77
33161;BME280;19522;45.656;11.302;2022-11-15T00:46:58;98624.56;;;7.79;94.66
33161;BME280;19522;45.656;11.302;2022-11-15T00:49:24;98584.63;;;7.57;95.44
33161;BME280;19522;45.656;11.302;2022-11-15T00:51:50;98615.25;;;7.90;95.85
33161;BME280;19522;45.656;11.302;2022-11-15T00:54:15;98620.97;;;7.71;96.56
33161;BME280;19522;45.656;11.302;2022-11-15T00:56:41;98599.16;;;7.56;96.23
33161;BME280;19522;45.656;11.302;2022-11-15T00:59:06;98619.13;;;7.71;95.45
33161;BME280;19522;45.656;11.302;2022-11-15T01:01:31;98558.06;;;7.27;95.13
33161;BME280;19522;45.656;11.302;2022-11-15T01:03:57;98613.69;;;7.55;95.99
33161;BME280;19522;45.656;11.302;2022-11-15T01:06:22;98609.91;;;7.39;97.42
33161;BME280;19522;45.656;11.302;2022-11-15T01:08:48;98586.91;;;7.27;97.90
33161;BME280;19522;45.656;11.302;2022-11-15T01:11:13;98624.78;;;7.35;97.75
33161;BME280;19522;45.656;11.302;2022-11-15T01:13:39;98602.31;;;7.35;97.16
33161;BME280;19522;45.656;11.302;2022-11-15T01:16:09;98628.22;;;7.62;95.07
33161;BME280;19522;45.656;11.302;2022-11-15T01:18:35;98583.91;;;7.38;93.89
33161;BME280;19522;45.656;11.302;2022-11-15T01:21:09;98598.41;;;7.37;95.41
33161;BME280;19522;45.656;11.302;2022-11-15T01:23:35;98623.13;;;7.51;96.44
33161;BME280;19522;45.656;11.302;2022-11-15T01:26:01;98618.34;;;7.36;97.33
33161;BME280;19522;45.656;11.302;2022-11-15T01:28:38;98626.38;;;7.20;98.80
33161;BME280;19522;45.656;11.302;2022-11-15T01:31:08;98621.13;;;7.10;100.00
33161;BME280;19522;45.656;11.302;2022-11-15T01:33:37;98628.22;;;7.11;99.40
33161;BME280;19522;45.656;11.302;2022-11-15T01:36:04;98600.31;;;7.02;100.00
33161;BME280;19522;45.656;11.302;2022-11-15T01:38:30;98608.97;;;7.14;100.00
33161;BME280;19522;45.656;11.302;2022-11-15T01:40:56;98602.78;;;7.30;98.40
33161;BME280;19522;45.656;11.302;2022-11-15T01:43:24;98602.75;;;7.13;97.73
33161;BME280;19522;45.656;11.302;2022-11-15T01:46:04;98600.72;;;7.15;97.86
33161;BME280;19522;45.656;11.302;2022-11-15T01:48:34;98599.75;;;7.25;97.40
33161;BME280;19522;45.656;11.302;2022-11-15T01:51:02;98554.22;;;6.95;97.35
33161;BME280;19522;45.656;11.302;2022-11-15T01:53:31;98582.84;;;7.23;97.50
33161;BME280;19522;45.656;11.302;2022-11-15T01:56:02;98589.59;;;7.27;97.21
33161;BME280;19522;45.656;11.302;2022-11-15T01:58:29;98588.47;;;7.29;97.21
33161;BME280;19522;45.656;11.302;2022-11-15T02:00:55;98570.38;;;7.30;96.63
33161;BME280;19522;45.656;11.302;2022-11-15T02:03:22;98582.22;;;7.37;96.55
33161;BME280;19522;45.656;11.302;2022-11-15T02:05:50;98538.75;;;7.14;96.54
33161;BME280;19522;45.656;11.302;2022-11-15T02:08:16;98475.38;;;6.75;95.87
33161;BME280;19522;45.656;11.302;2022-11-15T02:10:46;98573.78;;;7.32;96.29
33161;BME280;19522;45.656;11.302;2022-11-15T02:13:16;98530.47;;;7.07;95.72
33161;BME280;19522;45.656;11.302;2022-11-15T02:16:03;98557.16;;;7.18;95.24
33161;BME280;19522;45.656;11.302;2022-11-15T02:18:38;98558.22;;;7.26;95.22
33161;BME280;19522;45.656;11.302;2022-11-15T02:32:21;98547.25;;;7.36;92.49
33161;BME280;19522;45.656;11.302;2022-11-15T02:38:15;98527.06;;;6.97;95.79
33161;BME280;19522;45.656;11.302;2022-11-15T02:41:15;98547.75;;;7.23;95.32
33161;BME280;19522;45.656;11.302;2022-11-15T02:43:56;98543.03;;;7.25;95.08
33161;BME280;19522;45.656;11.302;2022-11-15T02:46:43;98529.16;;;7.20;94.28
33161;BME280;19522;45.656;11.302;2022-11-15T02:49:32;98512.22;;;7.01;94.40
33161;BME280;19522;45.656;11.302;2022-11-15T02:51:58;98546.03;;;7.22;95.02
33161;BME280;19522;45.656;11.302;2022-11-15T02:54:31;98532.19;;;7.16;95.41
33161;BME280;19522;45.656;11.302;2022-11-15T02:57:12;98536.00;;;6.97;95.55
33161;BME280;19522;45.656;11.302;2022-11-15T03:05:03;98530.22;;;7.35;92.53
33161;BME280;19522;45.656;11.302;2022-11-15T03:10:10;98524.88;;;6.92;94.91
33161;BME280;19522;45.656;11.302;2022-11-15T03:18:02;98495.25;;;6.74;94.67
33161;BME280;19522;45.656;11.302;2022-11-15T03:20:30;98530.81;;;7.12;92.15
33161;BME280;19522;45.656;11.302;2022-11-15T03:23:03;98535.31;;;6.95;93.30
33161;BME280;19522;45.656;11.302;2022-11-15T03:25:31;98527.59;;;7.00;93.13
33161;BME280;19522;45.656;11.302;2022-11-15T03:28:01;98527.81;;;7.15;91.70
33161;BME280;19522;45.656;11.302;2022-11-15T03:30:28;98518.09;;;6.88;92.73
33161;BME280;19522;45.656;11.302;2022-11-15T03:32:57;98527.88;;;6.89;93.80
33161;BME280;19522;45.656;11.302;2022-11-15T03:35:27;98540.25;;;7.08;92.17
33161;BME280;19522;45.656;11.302;2022-11-15T03:38:15;98493.06;;;6.69;93.09
33161;BME280;19522;45.656;11.302;2022-11-15T03:40:59;98534.00;;;6.99;93.11
33161;BME280;19522;45.656;11.302;2022-11-15T03:43:41;98528.44;;;7.01;92.95
33161;BME280;19522;45.656;11.302;2022-11-15T03:46:14;98506.38;;;6.71;93.30
33161;BME280;19522;45.656;11.302;2022-11-15T03:48:50;98536.72;;;6.65;95.50
33161;BME280;19522;45.656;11.302;2022-11-15T03:51:17;98533.94;;;6.48;95.95
33161;BME280;19522;45.656;11.302;2022-11-15T03:53:43;98501.06;;;6.18;97.11
33161;BME280;19522;45.656;11.302;2022-11-15T03:56:11;98535.94;;;6.46;97.26
33161;BME280;19522;45.656;11.302;2022-11-15T03:58:37;98544.41;;;6.51;97.10
33161;BME280;19522;45.656;11.302;2022-11-15T04:01:03;98518.34;;;6.68;93.74
33161;BME280;19522;45.656;11.302;2022-11-15T04:03:28;98522.94;;;6.76;93.28
33161;BME280;19522;45.656;11.302;2022-11-15T04:05:54;98541.84;;;6.76;93.27
33161;BME280;19522;45.656;11.302;2022-11-15T04:08:19;98541.41;;;6.63;94.88
33161;BME280;19522;45.656;11.302;2022-11-15T04:10:45;98543.56;;;6.51;95.47
33161;BME280;19522;45.656;11.302;2022-11-15T04:13:13;98553.34;;;6.26;96.16
33161;BME280;19522;45.656;11.302;2022-11-15T04:15:38;98539.81;;;6.17;97.38
33161;BME280;19522;45.656;11.302;2022-11-15T04:18:04;98548.97;;;6.51;95.20
33161;BME280;19522;45.656;11.302;2022-11-15T04:20:30;98485.13;;;6.07;95.02
33161;BME280;19522;45.656;11.302;2022-11-15T04:23:20;98539.25;;;6.40;96.08
33161;BME280;19522;45.656;11.302;2022-11-15T04:26:06;98530.22;;;6.49;94.65
33161;BME280;19522;45.656;11.302;2022-11-15T04:28:33;98531.59;;;6.53;94.59
33161;BME280;19522;45.656;11.302;2022-11-15T04:30:59;98528.94;;;6.35;96.22
33161;BME280;19522;45.656;11.302;2022-11-15T04:33:25;98533.09;;;6.21;97.93
33161;BME280;19522;45.656;11.302;2022-11-15T04:35:51;98440.06;;;5.73;98.35
33161;BME280;19522;45.656;11.302;2022-11-15T04:38:35;98521.69;;;6.28;98.23
33161;BME280;19522;45.656;11.302;2022-11-15T04:41:01;98457.84;;;5.84;98.06
33161;BME280;19522;45.656;11.302;2022-11-15T04:43:28;98527.75;;;6.30;97.58
33161;BME280;19522;45.656;11.302;2022-11-15T04:45:53;98525.06;;;6.30;97.04
33161;BME280;19522;45.656;11.302;2022-11-15T04:48:19;98421.88;;;5.75;97.12
33161;BME280;19522;45.656;11.302;2022-11-15T04:50:47;98520.16;;;6.60;94.96
33161;BME280;19522;45.656;11.302;2022-11-15T04:53:12;98512.06;;;6.60;93.78
33161;BME280;19522;45.656;11.302;2022-11-15T04:55:38;98516.03;;;6.39;94.73
33161;BME280;19522;45.656;11.302;2022-11-15T04:58:03;98493.06;;;6.35;94.87
33161;BME280;19522;45.656;11.302;2022-11-15T05:00:29;98397.16;;;6.06;93.27
33161;BME280;19522;45.656;11.302;2022-11-15T05:02:56;98492.00;;;6.62;93.22
33161;BME280;19522;45.656;11.302;2022-11-15T05:05:40;98503.97;;;6.60;93.88
33161;BME280;19522;45.656;11.302;2022-11-15T05:08:10;98485.72;;;6.53;94.04
33161;BME280;19522;45.656;11.302;2022-11-15T05:10:44;98463.63;;;6.15;95.60
33161;BME280;19522;45.656;11.302;2022-11-15T05:13:10;98472.59;;;6.24;95.52
33161;BME280;19522;45.656;11.302;2022-11-15T05:15:35;98446.22;;;6.10;95.99
33161;BME280;19522;45.656;11.302;2022-11-15T05:18:04;98498.19;;;6.20;96.65
33161;BME280;19522;45.656;11.302;2022-11-15T05:20:30;98466.28;;;5.89;98.94
33161;BME280;19522;45.656;11.302;2022-11-15T05:22:55;98484.44;;;6.05;98.21
33161;BME280;19522;45.656;11.302;2022-11-15T05:25:22;98490.44;;;5.99;99.28
33161;BME280;19522;45.656;11.302;2022-11-15T05:27:47;98496.66;;;6.17;98.58
33161;BME280;19522;45.656;11.302;2022-11-15T05:30:14;98499.09;;;6.02;99.08
33161;BME280;19522;45.656;11.302;2022-11-15T05:32:39;98500.94;;;6.28;97.58
33161;BME280;19522;45.656;11.302;2022-11-15T05:35:12;98462.56;;;6.08;97.01
33161;BME280;19522;45.656;11.302;2022-11-15T05:37:38;98473.00;;;6.11;97.84
33161;BME280;19522;45.656;11.302;2022-11-15T05:40:04;98500.19;;;6.44;95.93
33161;BME280;19522;45.656;11.302;2022-11-15T05:42:30;98493.75;;;6.37;96.22
33161;BME280;19522;45.656;11.302;2022-11-15T05:44:56;98501.97;;;6.35;96.51
33161;BME280;19522;45.656;11.302;2022-11-15T05:47:25;98402.69;;;5.52;97.02
33161;BME280;19522;45.656;11.302;2022-11-15T05:49:53;98500.94;;;6.02;98.95
33161;BME280;19522;45.656;11.302;2022-11-15T05:52:22;98493.59;;;6.12;98.34
33161;BME280;19522;45.656;11.302;2022-11-15T05:54:49;98509.88;;;6.29;97.28
33161;BME280;19522;45.656;11.302;2022-11-15T05:57:16;98506.31;;;6.28;97.27
33161;BME280;19522;45.656;11.302;2022-11-15T05:59:42;98494.19;;;6.24;97.67
33161;BME280;19522;45.656;11.302;2022-11-15T06:02:09;98501.38;;;6.15;98.57
33161;BME280;19522;45.656;11.302;2022-11-15T06:04:35;98476.97;;;5.99;99.59
33161;BME280;19522;45.656;11.302;2022-11-15T06:07:01;98504.22;;;6.14;97.96
33161;BME280;19522;45.656;11.302;2022-11-15T06:09:27;98495.78;;;5.90;99.15
33161;BME280;19522;45.656;11.302;2022-11-15T06:11:53;98511.72;;;5.84;100.00
33161;BME280;19522;45.656;11.302;2022-11-15T06:14:18;98485.84;;;5.73;100.00
33161;BME280;19522;45.656;11.302;2022-11-15T06:16:44;98507.94;;;6.13;98.95
33161;BME280;19522;45.656;11.302;2022-11-15T06:19:09;98515.53;;;6.17;97.83
33161;BME280;19522;45.656;11.302;2022-11-15T06:21:38;98516.38;;;6.18;98.02
33161;BME280;19522;45.656;11.302;2022-11-15T06:24:04;98516.78;;;6.05;98.56
33161;BME280;19522;45.656;11.302;2022-11-15T06:26:30;98425.09;;;5.52;98.47
33161;BME280;19522;45.656;11.302;2022-11-15T06:28:56;98510.56;;;6.04;98.48
33161;BME280;19522;45.656;11.302;2022-11-15T06:31:23;98519.88;;;6.10;98.50
33161;BME280;19522;45.656;11.302;2022-11-15T06:33:48;98492.84;;;6.02;97.97
33161;BME280;19522;45.656;11.302;2022-11-15T06:36:15;98521.25;;;6.14;97.87
33161;BME280;19522;45.656;11.302;2022-11-15T06:38:42;98512.25;;;5.87;97.96
33161;BME280;19522;45.656;11.302;2022-11-15T06:41:09;98541.97;;;6.40;96.26
33161;BME280;19522;45.656;11.302;2022-11-15T06:43:39;98540.69;;;6.52;95.50
33161;BME280;19522;45.656;11.302;2022-11-15T06:46:05;98528.63;;;6.65;93.53
33161;BME280;19522;45.656;11.302;2022-11-15T06:48:32;98530.47;;;6.64;93.77
33161;BME280;19522;45.656;11.302;2022-11-15T06:51:00;98535.34;;;6.61;93.90
33161;BME280;19522;45.656;11.302;2022-11-15T06:53:26;98535.91;;;6.38;95.36
33161;BME280;19522;45.656;11.302;2022-11-15T06:55:52;98510.97;;;6.18;95.91
33161;BME280;19522;45.656;11.302;2022-11-15T06:58:18;98543.94;;;6.30;96.72
33161;BME280;19522;45.656;11.302;2022-11-15T07:00:43;98545.78;;;6.29;96.49
33161;BME280;19522;45.656;11.302;2022-11-15T07:03:10;98551.97;;;6.21;96.91
33161;BME280;19522;45.656;11.302;2022-11-15T07:05:36;98549.19;;;6.31;96.79
33161;BME280;19522;45.656;11.302;2022-11-15T07:08:02;98543.25;;;6.54;96.32
33161;BME280;19522;45.656;11.302;2022-11-15T07:10:28;98544.50;;;6.68;94.51
33161;BME280;19522;45.656;11.302;2022-11-15T07:12:54;98531.16;;;6.66;93.65
33161;BME280;19522;45.656;11.302;2022-11-15T07:15:23;98549.97;;;6.84;93.28
33161;BME280;19522;45.656;11.302;2022-11-15T07:17:48;98544.38;;;6.78;94.00
33161;BME280;19522;45.656;11.302;2022-11-15T07:20:15;98542.91;;;6.57;95.75
33161;BME280;19522;45.656;11.302;2022-11-15T07:22:41;98545.47;;;6.59;96.72
33161;BME280;19522;45.656;11.302;2022-11-15T07:25:07;98552.66;;;6.50;97.69
33161;BME280;19522;45.656;11.302;2022-11-15T07:27:33;98544.69;;;6.75;96.86
33161;BME280;19522;45.656;11.302;2022-11-15T07:29:59;98525.16;;;6.81;95.13
33161;BME280;19522;45.656;11.302;2022-11-15T07:32:25;98539.22;;;7.01;95.21
33161;BME280;19522;45.656;11.302;2022-11-15T07:34:50;98542.88;;;6.83;96.78
33161;BME280;19522;45.656;11.302;2022-11-15T07:37:16;98478.19;;;6.31;97.87
33161;BME280;19522;45.656;11.302;2022-11-15T07:39:42;98528.41;;;6.93;96.47
33161;BME280;19522;45.656;11.302;2022-11-15T07:42:08;98527.94;;;7.06;95.67
33161;BME280;19522;45.656;11.302;2022-11-15T07:44:52;98548.69;;;7.05;97.14
33161;BME280;19522;45.656;11.302;2022-11-15T07:47:18;98545.84;;;7.07;98.24
33161;BME280;19522;45.656;11.302;2022-11-15T07:49:43;98546.03;;;7.22;98.49
33161;BME280;19522;45.656;11.302;2022-11-15T07:52:09;98543.53;;;7.20;98.32
33161;BME280;19522;45.656;11.302;2022-11-15T07:54:34;98548.75;;;7.30;98.69
33161;BME280;19522;45.656;11.302;2022-11-15T07:57:00;98548.44;;;7.33;98.62
33161;BME280;19522;45.656;11.302;2022-11-15T07:59:25;98542.38;;;7.47;99.01
33161;BME280;19522;45.656;11.302;2022-11-15T08:01:50;98544.44;;;7.62;98.57
33161;BME280;19522;45.656;11.302;2022-11-15T08:04:16;98501.00;;;7.47;98.03
33161;BME280;19522;45.656;11.302;2022-11-15T08:06:42;98515.72;;;7.69;97.69
33161;BME280;19522;45.656;11.302;2022-11-15T08:09:07;98533.13;;;8.00;97.05
33161;BME280;19522;45.656;11.302;2022-11-15T08:11:32;98531.78;;;8.12;95.90
33161;BME280;19522;45.656;11.302;2022-11-15T08:13:58;98533.59;;;8.28;95.03
33161;BME280;19522;45.656;11.302;2022-11-15T08:16:24;98514.50;;;8.30;94.35
33161;BME280;19522;45.656;11.302;2022-11-15T08:18:49;98518.19;;;8.45;93.74
33161;BME280;19522;45.656;11.302;2022-11-15T08:21:18;98529.97;;;8.69;93.22
33161;BME280;19522;45.656;11.302;2022-11-15T08:23:44;98494.50;;;8.55;92.96
33161;BME280;19522;45.656;11.302;2022-11-15T08:26:10;98525.41;;;8.78;92.37
33161;BME280;19522;45.656;11.302;2022-11-15T08:28:36;98530.44;;;8.89;91.87
33161;BME280;19522;45.656;11.302;2022-11-15T08:31:02;98536.16;;;8.94;91.75
33161;BME280;19522;45.656;11.302;2022-11-15T08:33:28;98529.34;;;9.07;90.58
33161;BME280;19522;45.656;11.302;2022-11-15T08:35:57;98499.50;;;9.15;88.69
33161;BME280;19522;45.656;11.302;2022-11-15T08:38:22;98517.00;;;9.35;87.15
33161;BME280;19522;45.656;11.302;2022-11-15T08:40:49;98476.66;;;9.09;87.83
33161;BME280;19522;45.656;11.302;2022-11-15T08:43:16;98510.56;;;9.28;88.26
33161;BME280;19522;45.656;11.302;2022-11-15T08:45:41;98512.25;;;9.29;88.66
33161;BME280;19522;45.656;11.302;2022-11-15T08:48:07;98513.13;;;9.30;88.97
33161;BME280;19522;45.656;11.302;2022-11-15T08:50:32;98518.28;;;9.40;88.75
33161;BME280;19522;45.656;11.302;2022-11-15T08:53:04;98494.81;;;9.32;88.91
33161;BME280;19522;45.656;11.302;2022-11-15T08:55:29;98516.94;;;9.44;88.78
33161;BME280;19522;45.656;11.302;2022-11-15T08:57:57;98509.94;;;9.49;88.46
33161;BME280;19522;45.656;11.302;2022-11-15T09:00:23;98509.16;;;9.64;88.18
33161;BME280;19522;45.656;11.302;2022-11-15T09:02:48;98509.13;;;9.87;86.49
33161;BME280;19522;45.656;11.302;2022-11-15T09:05:14;98503.06;;;9.85;85.92
33161;BME280;19522;45.656;11.302;2022-11-15T09:07:43;98515.03;;;9.76;87.06
33161;BME280;19522;45.656;11.302;2022-11-15T09:10:09;98509.34;;;9.62;87.76
33161;BME280;19522;45.656;11.302;2022-11-15T09:12:35;98431.97;;;9.05;89.39
33161;BME280;19522;45.656;11.302;2022-11-15T09:15:00;98514.22;;;9.44;91.26
33161;BME280;19522;45.656;11.302;2022-11-15T09:17:28;98507.59;;;9.46;91.96
33161;BME280;19522;45.656;11.302;2022-11-15T09:19:54;98502.41;;;9.37;92.48
33161;BME280;19522;45.656;11.302;2022-11-15T09:22:19;98513.41;;;9.35;94.61
33161;BME280;19522;45.656;11.302;2022-11-15T09:24:45;98489.81;;;9.44;94.65
33161;BME280;19522;45.656;11.302;2022-11-15T09:27:13;98506.56;;;9.71;94.18
33161;BME280;19522;45.656;11.302;2022-11-15T09:29:39;98442.06;;;9.43;93.60
33161;BME280;19522;45.656;11.302;2022-11-15T09:32:05;98462.63;;;9.75;89.64
33161;BME280;19522;45.656;11.302;2022-11-15T09:34:30;98503.31;;;10.13;88.81
33161;BME280;19522;45.656;11.302;2022-11-15T09:36:56;98499.59;;;10.29;88.25
33161;BME280;19522;45.656;11.302;2022-11-15T09:39:21;98497.16;;;10.35;87.67
33161;BME280;19522;45.656;11.302;2022-11-15T09:42:44;98495.19;;;10.28;86.99
33161;BME280;19522;45.656;11.302;2022-11-15T09:47:54;98496.00;;;10.67;85.61
33161;BME280;19522;45.656;11.302;2022-11-15T09:50:43;98491.59;;;10.51;84.59
33161;BME280;19522;45.656;11.302;2022-11-15T09:53:14;98493.56;;;10.57;85.04
33161;BME280;19522;45.656;11.302;2022-11-15T09:55:54;98493.81;;;10.78;86.10
33161;BME280;19522;45.656;11.302;2022-11-15T10:01:15;98480.69;;;11.33;82.02
33161;BME280;19522;45.656;11.302;2022-11-15T10:03:42;98470.22;;;11.51;81.01
33161;BME280;19522;45.656;11.302;2022-11-15T10:06:23;98437.47;;;11.38;81.92
33161;BME280;19522;45.656;11.302;2022-11-15T10:11:27;98448.78;;;11.20;79.49
33161;BME280;19522;45.656;11.302;2022-11-15T10:13:57;98458.94;;;11.33;80.10
33161;BME280;19522;45.656;11.302;2022-11-15T10:24:46;98435.75;;;11.80;74.37
33161;BME280;19522;45.656;11.302;2022-11-15T10:27:13;98375.69;;;11.53;75.76
33161;BME280;19522;45.656;11.302;2022-11-15T10:29:49;98427.31;;;11.97;76.54
33161;BME280;19522;45.656;11.302;2022-11-15T10:32:20;98432.69;;;11.90;76.54
33161;BME280;19522;45.656;11.302;2022-11-15T10:34:47;98437.97;;;11.70;77.78
33161;BME280;19522;45.656;11.302;2022-11-15T10:37:13;98433.59;;;11.47;75.12
33161;BME280;19522;45.656;11.302;2022-11-15T10:39:41;98400.59;;;11.57;75.03
33161;BME280;19522;45.656;11.302;2022-11-15T10:42:28;98417.50;;;11.74;75.34
33161;BME280;19522;45.656;11.302;2022-11-15T10:44:54;98413.03;;;11.45;74.56
33161;BME280;19522;45.656;11.302;2022-11-15T10:47:29;98408.31;;;11.32;74.68
33161;BME280;19522;45.656;11.302;2022-11-15T10:52:51;98400.81;;;11.56;74.40
33161;BME280;19522;45.656;11.302;2022-11-15T10:57:49;98403.81;;;11.39;75.50
33161;BME280;19522;45.656;11.302;2022-11-15T11:08:21;98392.00;;;11.32;74.27
33161;BME280;19522;45.656;11.302;2022-11-15T11:10:58;98357.78;;;11.37;74.99
33161;BME280;19522;45.656;11.302;2022-11-15T11:13:32;98383.28;;;11.36;74.99
33161;BME280;19522;45.656;11.302;2022-11-15T11:19:00;98381.41;;;11.59;73.77
33161;BME280;19522;45.656;11.302;2022-11-15T11:30:47;98320.91;;;10.85;78.07
33161;BME280;19522;45.656;11.302;2022-11-15T11:33:33;98365.09;;;11.37;77.17
33161;BME280;19522;45.656;11.302;2022-11-15T11:39:16;98335.63;;;11.41;78.19
33161;BME280;19522;45.656;11.302;2022-11-15T11:42:02;98347.94;;;11.65;77.25
33161;BME280;19522;45.656;11.302;2022-11-15T11:45:00;98349.88;;;11.43;75.51
33161;BME280;19522;45.656;11.302;2022-11-15T11:47:32;98335.19;;;11.15;77.32
33161;BME280;19522;45.656;11.302;2022-11-15T11:50:18;98353.13;;;11.10;77.90
33161;BME280;19522;45.656;11.302;2022-11-15T11:52:57;98344.63;;;11.41;75.77
33161;BME280;19522;45.656;11.302;2022-11-15T12:00:34;98306.19;;;11.22;76.65
33161;BME280;19522;45.656;11.302;2022-11-15T12:03:24;98339.59;;;11.16;76.81
33161;BME280;19522;45.656;11.302;2022-11-15T12:05:57;98340.56;;;11.30;76.15
33161;BME280;19522;45.656;11.302;2022-11-15T12:08:47;98333.81;;;11.48;75.11
33161;BME280;19522;45.656;11.302;2022-11-15T12:11:21;98302.16;;;10.90;75.92
33161;BME280;19522;45.656;11.302;2022-11-15T12:13:56;98330.78;;;10.93;75.42
33161;BME280;19522;45.656;11.302;2022-11-15T12:16:30;98326.94;;;10.80;76.82
33161;BME280;19522;45.656;11.302;2022-11-15T12:19:00;98320.06;;;10.84;78.04
33161;BME280;19522;45.656;11.302;2022-11-15T12:21:50;98314.03;;;10.89;77.18
33161;BME280;19522;45.656;11.302;2022-11-15T12:29:51;98289.75;;;10.44;79.21
33161;BME280;19522;45.656;11.302;2022-11-15T12:34:51;98306.97;;;10.51;79.44
33161;BME280;19522;45.656;11.302;2022-11-15T12:45:43;98306.75;;;10.89;80.06
33161;BME280;19522;45.656;11.302;2022-11-15T12:50:59;98288.56;;;10.90;77.92
33161;BME280;19522;45.656;11.302;2022-11-15T12:53:29;98284.94;;;10.83;79.01
33161;BME280;19522;45.656;11.302;2022-11-15T13:07:05;98275.69;;;11.27;78.55
33161;BME280;19522;45.656;11.302;2022-11-15T13:12:11;98259.38;;;11.20;75.40
33161;BME280;19522;45.656;11.302;2022-11-15T13:15:45;98252.25;;;11.19;75.44
33161;BME280;19522;45.656;11.302;2022-11-15T13:17:54;98254.97;;;11.19;76.40
33161;BME280;19522;45.656;11.302;2022-11-15T13:20:26;98253.22;;;11.12;73.68
33161;BME280;19522;45.656;11.302;2022-11-15T13:27:52;98233.50;;;11.31;77.59
33161;BME280;19522;45.656;11.302;2022-11-15T13:30:23;98244.06;;;11.48;78.03
33161;BME280;19522;45.656;11.302;2022-11-15T13:32:49;98240.25;;;11.42;78.69
33161;BME280;19522;45.656;11.302;2022-11-15T13:35:25;98242.34;;;11.40;78.78
33161;BME280;19522;45.656;11.302;2022-11-15T13:37:52;98239.22;;;11.43;79.31
33161;BME280;19522;45.656;11.302;2022-11-15T13:40:29;98235.53;;;11.51;80.23
33161;BME280;19522;45.656;11.302;2022-11-15T13:42:59;98236.59;;;11.57;81.15
33161;BME280;19522;45.656;11.302;2022-11-15T13:45:25;98232.69;;;11.66;80.59
33161;BME280;19522;45.656;11.302;2022-11-15T13:47:54;98222.84;;;11.65;81.00
33161;BME280;19522;45.656;11.302;2022-11-15T13:50:24;98223.09;;;11.77;78.58
33161;BME280;19522;45.656;11.302;2022-11-15T13:52:52;98220.94;;;11.65;79.02
33161;BME280;19522;45.656;11.302;2022-11-15T13:55:21;98226.16;;;11.60;82.36
33161;BME280;19522;45.656;11.302;2022-11-15T13:57:56;98218.50;;;11.42;85.59
33161;BME280;19522;45.656;11.302;2022-11-15T14:00:42;98215.13;;;11.33;86.84
33161;BME280;19522;45.656;11.302;2022-11-15T14:03:19;98219.47;;;11.28;88.60
33161;BME280;19522;45.656;11.302;2022-11-15T14:08:33;98221.78;;;11.31;90.23
33161;BME280;19522;45.656;11.302;2022-11-15T14:11:18;98221.78;;;11.31;90.37
33161;BME280;19522;45.656;11.302;2022-11-15T14:19:05;98176.63;;;11.30;88.43
33161;BME280;19522;45.656;11.302;2022-11-15T14:21:31;98204.53;;;11.45;88.61
33161;BME280;19522;45.656;11.302;2022-11-15T14:24:32;98202.84;;;11.44;88.80
33161;BME280;19522;45.656;11.302;2022-11-15T14:27:19;98197.44;;;11.51;89.30
33161;BME280;19522;45.656;11.302;2022-11-15T14:29:45;98195.50;;;11.45;89.33
33161;BME280;19522;45.656;11.302;2022-11-15T14:32:19;98181.69;;;11.40;89.78
33161;BME280;19522;45.656;11.302;2022-11-15T14:34:46;98178.38;;;11.44;89.24
33161;BME280;19522;45.656;11.302;2022-11-15T14:37:30;98178.81;;;11.48;89.15
33161;BME280;19522;45.656;11.302;2022-11-15T14:40:05;98182.38;;;11.48;89.05
33161;BME280;19522;45.656;11.302;2022-11-15T14:42:31;98158.63;;;11.29;89.43
33161;BME280;19522;45.656;11.302;2022-11-15T14:44:57;98174.81;;;11.44;88.81
33161;BME280;19522;45.656;11.302;2022-11-15T14:47:23;98182.38;;;11.48;88.86
33161;BME280;19522;45.656;11.302;2022-11-15T14:49:48;98150.75;;;11.41;88.59
33161;BME280;19522;45.656;11.302;2022-11-15T14:52:29;98165.47;;;11.53;88.99
33161;BME280;19522;45.656;11.302;2022-11-15T14:54:55;98165.59;;;11.38;89.05
33161;BME280;19522;45.656;11.302;2022-11-15T14:57:23;98178.59;;;11.49;88.73
33161;BME280;19522;45.656;11.302;2022-11-15T14:59:48;98165.81;;;11.43;88.80
33161;BME280;19522;45.656;11.302;2022-11-15T15:02:25;98161.84;;;11.46;89.01
33161;BME280;19522;45.656;11.302;2022-11-15T15:04:52;98161.22;;;11.44;87.42
33161;BME280;19522;45.656;11.302;2022-11-15T15:07:18;98162.81;;;11.31;88.74
33161;BME280;19522;45.656;11.302;2022-11-15T15:09:44;98160.94;;;11.32;89.44
33161;BME280;19522;45.656;11.302;2022-11-15T15:12:21;98154.63;;;11.25;89.90
33161;BME280;19522;45.656;11.302;2022-11-15T15:14:48;98129.41;;;11.02;90.35